sensor_id;sensor_type;location;lat;lon;timestamp;temperature;humidity
23499;DHT22;11926;48.120;11.562;2022-11-15T00:00:10;6.00;92.90
23499;DHT22;11926;48.120;11.562;2022-11-15T00:03:16;6.00;93.00
23499;DHT22;11926;48.120;11.562;2022-11-15T00:06:23;6.00;93.10
23499;DHT22;11926;48.120;11.562;2022-11-15T00:09:29;6.00;93.20
23499;DHT22;11926;48.120;11.562;2022-11-15T00:12:34;6.00;93.10
23499;DHT22;11926;48.120;11.562;2022-11-15T00:15:42;5.90;93.00
23499;DHT22;11926;48.120;11.562;2022-11-15T00:18:48;5.90;93.00
23499;DHT22;11926;48.120;11.562;2022-11-15T00:21:54;5.90;92.90
23499;DHT22;11926;48.120;11.562;2022-11-15T00:25:00;5.90;92.90
23499;DHT22;11926;48.120;11.562;2022-11-15T00:28:06;5.90;92.90
23499;DHT22;11926;48.120;11.562;2022-11-15T00:31:14;5.80;93.00
23499;DHT22;11926;48.120;11.562;2022-11-15T00:34:20;5.80;93.00
23499;DHT22;11926;48.120;11.562;2022-11-15T00:37:25;5.80;92.90
23499;DHT22;11926;48.120;11.562;2022-11-15T00:40:31;5.80;92.90
23499;DHT22;11926;48.120;11.562;2022-11-15T00:43:38;5.70;92.80
23499;DHT22;11926;48.120;11.562;2022-11-15T00:46:46;5.70;92.80
23499;DHT22;11926;48.120;11.562;2022-11-15T00:49:52;5.70;92.90
23499;DHT22;11926;48.120;11.562;2022-11-15T00:52:58;5.70;93.00
23499;DHT22;11926;48.120;11.562;2022-11-15T00:56:04;5.60;93.10
23499;DHT22;11926;48.120;11.562;2022-11-15T00:59:09;5.60;93.20
23499;DHT22;11926;48.120;11.562;2022-11-15T01:02:17;5.50;93.30
23499;DHT22;11926;48.120;11.562;2022-11-15T01:05:26;5.50;93.40
23499;DHT22;11926;48.120;11.562;2022-11-15T01:08:31;5.50;93.40
23499;DHT22;11926;48.120;11.562;2022-11-15T01:11:37;5.40;93.50
23499;DHT22;11926;48.120;11.562;2022-11-15T01:14:43;5.40;93.50
23499;DHT22;11926;48.120;11.562;2022-11-15T01:17:51;5.40;93.60
23499;DHT22;11926;48.120;11.562;2022-11-15T01:20:57;5.50;93.60
23499;DHT22;11926;48.120;11.562;2022-11-15T01:24:03;5.40;93.60
23499;DHT22;11926;48.120;11.562;2022-11-15T01:27:09;5.40;93.70
23499;DHT22;11926;48.120;11.562;2022-11-15T01:30:16;5.40;93.70
23499;DHT22;11926;48.120;11.562;2022-11-15T01:33:23;5.40;93.70
23499;DHT22;11926;48.120;11.562;2022-11-15T01:36:29;5.40;93.80
23499;DHT22;11926;48.120;11.562;2022-11-15T01:39:35;5.40;93.80
23499;DHT22;11926;48.120;11.562;2022-11-15T01:42:42;5.30;93.80
23499;DHT22;11926;48.120;11.562;2022-11-15T01:45:51;5.30;93.80
23499;DHT22;11926;48.120;11.562;2022-11-15T01:49:02;5.30;93.90
23499;DHT22;11926;48.120;11.562;2022-11-15T01:52:13;5.30;93.90
23499;DHT22;11926;48.120;11.562;2022-11-15T01:55:22;5.30;93.80
23499;DHT22;11926;48.120;11.562;2022-11-15T01:58:30;5.30;93.80
23499;DHT22;11926;48.120;11.562;2022-11-15T02:01:36;5.30;93.70
23499;DHT22;11926;48.120;11.562;2022-11-15T02:04:46;5.30;93.70
23499;DHT22;11926;48.120;11.562;2022-11-15T02:07:52;5.30;93.70
23499;DHT22;11926;48.120;11.562;2022-11-15T02:10:59;5.20;93.70
23499;DHT22;11926;48.120;11.562;2022-11-15T02:14:05;5.30;93.60
23499;DHT22;11926;48.120;11.562;2022-11-15T02:17:25;5.30;93.50
23499;DHT22;11926;48.120;11.562;2022-11-15T02:20:44;5.20;93.50
23499;DHT22;11926;48.120;11.562;2022-11-15T02:24:06;5.20;93.40
23499;DHT22;11926;48.120;11.562;2022-11-15T02:27:38;5.20;93.40
23499;DHT22;11926;48.120;11.562;2022-11-15T02:30:50;5.20;93.30
23499;DHT22;11926;48.120;11.562;2022-11-15T02:34:05;5.10;93.20
23499;DHT22;11926;48.120;11.562;2022-11-15T02:37:18;5.00;93.20
23499;DHT22;11926;48.120;11.562;2022-11-15T02:40:33;5.00;93.20
23499;DHT22;11926;48.120;11.562;2022-11-15T02:43:43;5.00;93.20
23499;DHT22;11926;48.120;11.562;2022-11-15T02:47:10;4.90;93.40
23499;DHT22;11926;48.120;11.562;2022-11-15T02:50:21;4.80;93.40
23499;DHT22;11926;48.120;11.562;2022-11-15T02:53:28;4.80;93.50
23499;DHT22;11926;48.120;11.562;2022-11-15T02:56:34;4.80;93.40
23499;DHT22;11926;48.120;11.562;2022-11-15T02:59:55;4.80;93.30
23499;DHT22;11926;48.120;11.562;2022-11-15T03:03:20;4.80;93.30
23499;DHT22;11926;48.120;11.562;2022-11-15T03:06:36;4.80;93.20
23499;DHT22;11926;48.120;11.562;2022-11-15T03:09:50;4.70;93.20
23499;DHT22;11926;48.120;11.562;2022-11-15T03:13:02;4.70;93.20
23499;DHT22;11926;48.120;11.562;2022-11-15T03:16:14;4.60;93.70
23499;DHT22;11926;48.120;11.562;2022-11-15T03:19:28;4.60;93.50
23499;DHT22;11926;48.120;11.562;2022-11-15T03:22:37;4.60;93.60
23499;DHT22;11926;48.120;11.562;2022-11-15T03:25:47;4.50;93.60
23499;DHT22;11926;48.120;11.562;2022-11-15T03:28:56;4.50;93.60
23499;DHT22;11926;48.120;11.562;2022-11-15T03:32:06;4.50;94.00
23499;DHT22;11926;48.120;11.562;2022-11-15T03:35:18;4.50;93.60
23499;DHT22;11926;48.120;11.562;2022-11-15T03:38:28;4.50;93.70
23499;DHT22;11926;48.120;11.562;2022-11-15T03:41:39;4.50;93.70
23499;DHT22;11926;48.120;11.562;2022-11-15T03:44:52;4.50;93.80
23499;DHT22;11926;48.120;11.562;2022-11-15T03:48:05;4.60;93.80
23499;DHT22;11926;48.120;11.562;2022-11-15T03:51:15;4.60;93.80
23499;DHT22;11926;48.120;11.562;2022-11-15T03:54:21;4.50;93.60
23499;DHT22;11926;48.120;11.562;2022-11-15T03:57:27;4.60;93.60
23499;DHT22;11926;48.120;11.562;2022-11-15T04:00:33;4.60;93.70
23499;DHT22;11926;48.120;11.562;2022-11-15T04:03:39;4.50;93.70
23499;DHT22;11926;48.120;11.562;2022-11-15T04:06:47;4.60;93.70
23499;DHT22;11926;48.120;11.562;2022-11-15T04:09:53;4.50;93.70
23499;DHT22;11926;48.120;11.562;2022-11-15T04:13:12;4.50;93.70
23499;DHT22;11926;48.120;11.562;2022-11-15T04:16:19;4.50;93.80
23499;DHT22;11926;48.120;11.562;2022-11-15T04:19:24;4.50;93.80
23499;DHT22;11926;48.120;11.562;2022-11-15T04:22:45;4.50;93.80
23499;DHT22;11926;48.120;11.562;2022-11-15T04:26:07;4.50;93.70
23499;DHT22;11926;48.120;11.562;2022-11-15T04:29:12;4.40;93.60
23499;DHT22;11926;48.120;11.562;2022-11-15T04:32:36;4.50;93.60
23499;DHT22;11926;48.120;11.562;2022-11-15T04:35:41;4.40;93.90
23499;DHT22;11926;48.120;11.562;2022-11-15T04:38:48;4.40;93.50
23499;DHT22;11926;48.120;11.562;2022-11-15T04:41:52;4.40;93.60
23499;DHT22;11926;48.120;11.562;2022-11-15T04:44:58;4.30;93.40
23499;DHT22;11926;48.120;11.562;2022-11-15T04:48:04;4.30;93.50
23499;DHT22;11926;48.120;11.562;2022-11-15T04:51:10;4.30;93.50
23499;DHT22;11926;48.120;11.562;2022-11-15T04:54:18;4.30;93.40
23499;DHT22;11926;48.120;11.562;2022-11-15T04:57:24;4.30;93.50
23499;DHT22;11926;48.120;11.562;2022-11-15T05:00:30;4.20;93.30
23499;DHT22;11926;48.120;11.562;2022-11-15T05:03:36;4.20;93.30
23499;DHT22;11926;48.120;11.562;2022-11-15T05:06:56;4.20;93.40
23499;DHT22;11926;48.120;11.562;2022-11-15T05:10:02;4.10;93.40
23499;DHT22;11926;48.120;11.562;2022-11-15T05:13:07;4.10;93.50
23499;DHT22;11926;48.120;11.562;2022-11-15T05:16:13;4.10;93.60
23499;DHT22;11926;48.120;11.562;2022-11-15T05:19:18;4.10;93.60
23499;DHT22;11926;48.120;11.562;2022-11-15T05:22:24;4.10;93.60
23499;DHT22;11926;48.120;11.562;2022-11-15T05:25:31;4.10;93.70
23499;DHT22;11926;48.120;11.562;2022-11-15T05:28:38;4.00;93.70
23499;DHT22;11926;48.120;11.562;2022-11-15T05:31:43;4.10;93.70
23499;DHT22;11926;48.120;11.562;2022-11-15T05:34:49;4.10;93.80
23499;DHT22;11926;48.120;11.562;2022-11-15T05:37:56;4.00;93.80
23499;DHT22;11926;48.120;11.562;2022-11-15T05:41:04;4.00;93.80
23499;DHT22;11926;48.120;11.562;2022-11-15T05:44:13;4.10;93.80
23499;DHT22;11926;48.120;11.562;2022-11-15T05:47:24;4.10;93.80
23499;DHT22;11926;48.120;11.562;2022-11-15T05:50:30;4.10;93.70
23499;DHT22;11926;48.120;11.562;2022-11-15T05:53:37;4.00;93.70
23499;DHT22;11926;48.120;11.562;2022-11-15T05:56:44;4.00;93.70
23499;DHT22;11926;48.120;11.562;2022-11-15T05:59:50;4.00;93.70
23499;DHT22;11926;48.120;11.562;2022-11-15T06:02:56;4.00;93.70
23499;DHT22;11926;48.120;11.562;2022-11-15T06:06:02;3.90;93.80
23499;DHT22;11926;48.120;11.562;2022-11-15T06:09:08;3.90;93.80
23499;DHT22;11926;48.120;11.562;2022-11-15T06:12:15;3.90;93.90
23499;DHT22;11926;48.120;11.562;2022-11-15T06:15:21;3.90;93.80
23499;DHT22;11926;48.120;11.562;2022-11-15T06:18:28;3.90;93.80
23499;DHT22;11926;48.120;11.562;2022-11-15T06:21:34;3.90;93.80
23499;DHT22;11926;48.120;11.562;2022-11-15T06:24:39;3.90;93.80
23499;DHT22;11926;48.120;11.562;2022-11-15T06:27:53;3.90;93.80
23499;DHT22;11926;48.120;11.562;2022-11-15T06:31:03;3.90;94.20
23499;DHT22;11926;48.120;11.562;2022-11-15T06:34:09;3.90;93.70
23499;DHT22;11926;48.120;11.562;2022-11-15T06:37:16;3.90;93.70
23499;DHT22;11926;48.120;11.562;2022-11-15T06:40:22;3.90;94.10
23499;DHT22;11926;48.120;11.562;2022-11-15T06:43:29;3.80;93.70
23499;DHT22;11926;48.120;11.562;2022-11-15T06:46:36;3.80;93.70
23499;DHT22;11926;48.120;11.562;2022-11-15T06:49:42;3.90;93.80
23499;DHT22;11926;48.120;11.562;2022-11-15T06:52:48;3.90;93.90
23499;DHT22;11926;48.120;11.562;2022-11-15T06:55:58;3.90;93.90
23499;DHT22;11926;48.120;11.562;2022-11-15T06:59:06;3.90;93.90
23499;DHT22;11926;48.120;11.562;2022-11-15T07:02:12;3.90;93.90
23499;DHT22;11926;48.120;11.562;2022-11-15T07:05:19;3.90;93.90
23499;DHT22;11926;48.120;11.562;2022-11-15T07:08:27;4.00;93.90
23499;DHT22;11926;48.120;11.562;2022-11-15T07:11:34;4.00;93.90
23499;DHT22;11926;48.120;11.562;2022-11-15T07:14:41;4.00;93.90
23499;DHT22;11926;48.120;11.562;2022-11-15T07:17:46;4.00;93.90
23499;DHT22;11926;48.120;11.562;2022-11-15T07:20:52;4.00;93.90
23499;DHT22;11926;48.120;11.562;2022-11-15T07:23:58;4.00;93.90
23499;DHT22;11926;48.120;11.562;2022-11-15T07:27:04;4.00;93.90
23499;DHT22;11926;48.120;11.562;2022-11-15T07:30:14;4.00;94.00
23499;DHT22;11926;48.120;11.562;2022-11-15T07:33:20;4.00;94.00
23499;DHT22;11926;48.120;11.562;2022-11-15T07:36:27;4.00;94.10
23499;DHT22;11926;48.120;11.562;2022-11-15T07:39:33;4.00;94.10
23499;DHT22;11926;48.120;11.562;2022-11-15T07:42:39;4.00;94.10
23499;DHT22;11926;48.120;11.562;2022-11-15T07:46:05;4.00;94.10
23499;DHT22;11926;48.120;11.562;2022-11-15T07:49:13;4.10;94.10
23499;DHT22;11926;48.120;11.562;2022-11-15T07:52:19;4.10;94.20
23499;DHT22;11926;48.120;11.562;2022-11-15T07:55:27;4.20;94.10
23499;DHT22;11926;48.120;11.562;2022-11-15T07:58:34;4.20;94.10
23499;DHT22;11926;48.120;11.562;2022-11-15T08:01:41;4.20;94.20
23499;DHT22;11926;48.120;11.562;2022-11-15T08:04:48;4.30;94.30
23499;DHT22;11926;48.120;11.562;2022-11-15T08:07:55;4.40;94.50
23499;DHT22;11926;48.120;11.562;2022-11-15T08:11:02;4.70;94.50
23499;DHT22;11926;48.120;11.562;2022-11-15T08:14:07;4.90;94.40
23499;DHT22;11926;48.120;11.562;2022-11-15T08:17:14;5.10;94.40
23499;DHT22;11926;48.120;11.562;2022-11-15T08:20:21;5.40;94.30
23499;DHT22;11926;48.120;11.562;2022-11-15T08:23:27;5.50;94.20
23499;DHT22;11926;48.120;11.562;2022-11-15T08:26:34;5.70;94.20
23499;DHT22;11926;48.120;11.562;2022-11-15T08:29:40;6.00;94.10
23499;DHT22;11926;48.120;11.562;2022-11-15T08:32:48;6.10;93.90
23499;DHT22;11926;48.120;11.562;2022-11-15T08:35:56;6.30;93.70
23499;DHT22;11926;48.120;11.562;2022-11-15T08:39:03;6.50;93.50
23499;DHT22;11926;48.120;11.562;2022-11-15T08:42:09;6.70;93.40
23499;DHT22;11926;48.120;11.562;2022-11-15T08:45:23;6.80;93.20
23499;DHT22;11926;48.120;11.562;2022-11-15T08:48:30;6.80;93.20
23499;DHT22;11926;48.120;11.562;2022-11-15T08:51:38;6.80;93.10
23499;DHT22;11926;48.120;11.562;2022-11-15T08:54:44;6.80;93.20
23499;DHT22;11926;48.120;11.562;2022-11-15T08:57:51;6.90;93.20
23499;DHT22;11926;48.120;11.562;2022-11-15T09:00:57;6.90;93.20
23499;DHT22;11926;48.120;11.562;2022-11-15T09:04:04;6.90;93.10
23499;DHT22;11926;48.120;11.562;2022-11-15T09:07:11;6.90;93.10
23499;DHT22;11926;48.120;11.562;2022-11-15T09:10:17;6.90;93.10
23499;DHT22;11926;48.120;11.562;2022-11-15T09:13:23;6.90;93.00
23499;DHT22;11926;48.120;11.562;2022-11-15T09:16:30;7.00;93.10
23499;DHT22;11926;48.120;11.562;2022-11-15T09:19:38;7.10;93.00
23499;DHT22;11926;48.120;11.562;2022-11-15T09:22:44;7.20;92.90
23499;DHT22;11926;48.120;11.562;2022-11-15T09:25:50;7.30;92.60
23499;DHT22;11926;48.120;11.562;2022-11-15T09:28:56;7.50;92.40
23499;DHT22;11926;48.120;11.562;2022-11-15T09:32:02;7.90;92.00
23499;DHT22;11926;48.120;11.562;2022-11-15T09:35:10;8.10;91.50
23499;DHT22;11926;48.120;11.562;2022-11-15T09:38:17;8.50;91.10
23499;DHT22;11926;48.120;11.562;2022-11-15T09:41:37;8.80;90.80
23499;DHT22;11926;48.120;11.562;2022-11-15T09:44:56;9.10;90.20
23499;DHT22;11926;48.120;11.562;2022-11-15T09:48:22;9.30;89.70
23499;DHT22;11926;48.120;11.562;2022-11-15T09:51:32;9.60;88.50
23499;DHT22;11926;48.120;11.562;2022-11-15T09:54:27;9.90;87.70
23499;DHT22;11926;48.120;11.562;2022-11-15T09:57:41;10.00;86.90
23499;DHT22;11926;48.120;11.562;2022-11-15T10:00:34;10.20;86.50
23499;DHT22;11926;48.120;11.562;2022-11-15T10:03:34;10.30;85.70
23499;DHT22;11926;48.120;11.562;2022-11-15T10:06:25;10.60;84.90
23499;DHT22;11926;48.120;11.562;2022-11-15T10:09:18;10.70;84.40
23499;DHT22;11926;48.120;11.562;2022-11-15T10:12:09;10.90;83.70
23499;DHT22;11926;48.120;11.562;2022-11-15T10:15:03;11.10;82.80
23499;DHT22;11926;48.120;11.562;2022-11-15T10:18:06;11.30;82.30
23499;DHT22;11926;48.120;11.562;2022-11-15T10:20:59;11.40;81.20
23499;DHT22;11926;48.120;11.562;2022-11-15T10:23:47;11.60;82.10
23499;DHT22;11926;48.120;11.562;2022-11-15T10:26:36;11.80;82.00
23499;DHT22;11926;48.120;11.562;2022-11-15T10:29:25;12.00;81.60
23499;DHT22;11926;48.120;11.562;2022-11-15T10:32:14;12.20;80.70
23499;DHT22;11926;48.120;11.562;2022-11-15T10:35:17;12.40;79.40
23499;DHT22;11926;48.120;11.562;2022-11-15T10:38:06;12.60;78.70
23499;DHT22;11926;48.120;11.562;2022-11-15T10:41:07;12.60;77.80
23499;DHT22;11926;48.120;11.562;2022-11-15T10:44:12;12.70;78.10
23499;DHT22;11926;48.120;11.562;2022-11-15T10:47:20;12.90;77.40
23499;DHT22;11926;48.120;11.562;2022-11-15T10:50:27;13.20;76.10
23499;DHT22;11926;48.120;11.562;2022-11-15T10:53:22;13.40;75.20
23499;DHT22;11926;48.120;11.562;2022-11-15T10:56:13;13.60;74.70
23499;DHT22;11926;48.120;11.562;2022-11-15T10:59:04;13.90;74.40
23499;DHT22;11926;48.120;11.562;2022-11-15T11:01:51;14.00;73.50
23499;DHT22;11926;48.120;11.562;2022-11-15T11:04:50;14.30;72.00
23499;DHT22;11926;48.120;11.562;2022-11-15T11:07:37;14.40;71.10
23499;DHT22;11926;48.120;11.562;2022-11-15T11:10:25;14.60;71.00
23499;DHT22;11926;48.120;11.562;2022-11-15T11:13:34;14.80;69.80
23499;DHT22;11926;48.120;11.562;2022-11-15T11:16:42;14.90;68.50
23499;DHT22;11926;48.120;11.562;2022-11-15T11:22:35;15.20;68.60
23499;DHT22;11926;48.120;11.562;2022-11-15T11:25:33;15.30;67.80
23499;DHT22;11926;48.120;11.562;2022-11-15T11:28:33;15.40;67.40
23499;DHT22;11926;48.120;11.562;2022-11-15T11:31:29;15.50;67.50
23499;DHT22;11926;48.120;11.562;2022-11-15T11:34:35;15.70;66.80
23499;DHT22;11926;48.120;11.562;2022-11-15T11:37:31;15.70;65.10
23499;DHT22;11926;48.120;11.562;2022-11-15T11:40:28;15.60;63.90
23499;DHT22;11926;48.120;11.562;2022-11-15T11:43:25;15.50;63.60
23499;DHT22;11926;48.120;11.562;2022-11-15T11:46:24;15.60;63.90
23499;DHT22;11926;48.120;11.562;2022-11-15T11:49:21;15.60;62.90
23499;DHT22;11926;48.120;11.562;2022-11-15T11:55:03;15.60;62.20
23499;DHT22;11926;48.120;11.562;2022-11-15T11:58:04;15.60;61.40
23499;DHT22;11926;48.120;11.562;2022-11-15T12:00:55;15.60;61.30
23499;DHT22;11926;48.120;11.562;2022-11-15T12:03:49;15.60;60.70
23499;DHT22;11926;48.120;11.562;2022-11-15T12:06:45;15.60;61.60
23499;DHT22;11926;48.120;11.562;2022-11-15T12:09:36;15.60;61.40
23499;DHT22;11926;48.120;11.562;2022-11-15T12:12:30;15.70;61.10
23499;DHT22;11926;48.120;11.562;2022-11-15T12:15:22;15.60;60.40
23499;DHT22;11926;48.120;11.562;2022-11-15T12:18:13;15.60;60.60
23499;DHT22;11926;48.120;11.562;2022-11-15T12:21:04;15.60;60.80
23499;DHT22;11926;48.120;11.562;2022-11-15T12:24:00;15.70;60.70
23499;DHT22;11926;48.120;11.562;2022-11-15T12:26:54;15.60;60.30
23499;DHT22;11926;48.120;11.562;2022-11-15T12:29:46;15.70;61.50
23499;DHT22;11926;48.120;11.562;2022-11-15T12:32:37;15.70;60.90
23499;DHT22;11926;48.120;11.562;2022-11-15T12:35:29;15.70;61.00
23499;DHT22;11926;48.120;11.562;2022-11-15T12:38:50;15.70;60.70
23499;DHT22;11926;48.120;11.562;2022-11-15T12:41:41;15.70;61.10
23499;DHT22;11926;48.120;11.562;2022-11-15T12:47:46;15.90;61.10
23499;DHT22;11926;48.120;11.562;2022-11-15T12:50:55;15.90;61.10
23499;DHT22;11926;48.120;11.562;2022-11-15T12:56:30;15.80;60.50
23499;DHT22;11926;48.120;11.562;2022-11-15T13:02:44;16.00;60.30
23499;DHT22;11926;48.120;11.562;2022-11-15T13:05:52;16.00;60.00
23499;DHT22;11926;48.120;11.562;2022-11-15T13:11:49;16.10;59.90
23499;DHT22;11926;48.120;11.562;2022-11-15T13:14:43;16.10;59.50
23499;DHT22;11926;48.120;11.562;2022-11-15T13:17:33;16.10;59.80
23499;DHT22;11926;48.120;11.562;2022-11-15T13:20:25;16.10;59.10
23499;DHT22;11926;48.120;11.562;2022-11-15T13:23:14;16.00;59.30
23499;DHT22;11926;48.120;11.562;2022-11-15T13:26:10;16.00;59.00
23499;DHT22;11926;48.120;11.562;2022-11-15T13:28:59;16.00;58.90
23499;DHT22;11926;48.120;11.562;2022-11-15T13:31:47;16.00;59.10
23499;DHT22;11926;48.120;11.562;2022-11-15T13:34:37;16.00;59.10
23499;DHT22;11926;48.120;11.562;2022-11-15T13:37:41;16.00;59.00
23499;DHT22;11926;48.120;11.562;2022-11-15T13:40:34;16.00;59.40
23499;DHT22;11926;48.120;11.562;2022-11-15T13:43:34;16.00;59.20
23499;DHT22;11926;48.120;11.562;2022-11-15T13:46:23;16.10;59.10
23499;DHT22;11926;48.120;11.562;2022-11-15T13:49:12;16.10;59.00
23499;DHT22;11926;48.120;11.562;2022-11-15T13:52:00;16.10;59.20
23499;DHT22;11926;48.120;11.562;2022-11-15T13:54:55;16.10;59.90
23499;DHT22;11926;48.120;11.562;2022-11-15T13:57:45;16.10;59.50
23499;DHT22;11926;48.120;11.562;2022-11-15T14:00:37;16.20;59.30
23499;DHT22;11926;48.120;11.562;2022-11-15T14:03:27;16.20;59.30
23499;DHT22;11926;48.120;11.562;2022-11-15T14:06:19;16.20;59.80
23499;DHT22;11926;48.120;11.562;2022-11-15T14:09:30;16.20;61.20
23499;DHT22;11926;48.120;11.562;2022-11-15T14:15:30;16.30;62.30
23499;DHT22;11926;48.120;11.562;2022-11-15T14:18:40;16.30;63.20
23499;DHT22;11926;48.120;11.562;2022-11-15T14:21:30;16.30;63.70
23499;DHT22;11926;48.120;11.562;2022-11-15T14:24:19;16.30;64.10
23499;DHT22;11926;48.120;11.562;2022-11-15T14:27:22;16.30;64.40
23499;DHT22;11926;48.120;11.562;2022-11-15T14:30:15;16.30;65.30
23499;DHT22;11926;48.120;11.562;2022-11-15T14:33:18;16.30;65.60
23499;DHT22;11926;48.120;11.562;2022-11-15T14:36:10;16.40;65.60
23499;DHT22;11926;48.120;11.562;2022-11-15T14:38:59;16.60;65.50
23499;DHT22;11926;48.120;11.562;2022-11-15T14:41:47;16.70;64.80
23499;DHT22;11926;48.120;11.562;2022-11-15T14:44:34;16.70;64.60
23499;DHT22;11926;48.120;11.562;2022-11-15T14:47:23;16.60;65.00
23499;DHT22;11926;48.120;11.562;2022-11-15T14:50:12;16.40;65.40
23499;DHT22;11926;48.120;11.562;2022-11-15T14:53:00;16.20;65.70
23499;DHT22;11926;48.120;11.562;2022-11-15T14:55:49;16.00;66.20
23499;DHT22;11926;48.120;11.562;2022-11-15T14:58:36;15.80;66.40
23499;DHT22;11926;48.120;11.562;2022-11-15T15:01:25;15.60;67.00
23499;DHT22;11926;48.120;11.562;2022-11-15T15:07:01;15.30;67.40
23499;DHT22;11926;48.120;11.562;2022-11-15T15:09:48;15.10;68.70
23499;DHT22;11926;48.120;11.562;2022-11-15T15:12:37;14.90;69.20
23499;DHT22;11926;48.120;11.562;2022-11-15T15:15:26;14.70;69.60
23499;DHT22;11926;48.120;11.562;2022-11-15T15:18:13;14.60;70.30
23499;DHT22;11926;48.120;11.562;2022-11-15T15:21:02;14.50;71.00
23499;DHT22;11926;48.120;11.562;2022-11-15T15:23:53;14.40;71.60
23499;DHT22;11926;48.120;11.562;2022-11-15T15:26:40;14.40;72.30
23499;DHT22;11926;48.120;11.562;2022-11-15T15:29:30;14.30;72.80
23499;DHT22;11926;48.120;11.562;2022-11-15T15:32:17;14.20;73.30
23499;DHT22;11926;48.120;11.562;2022-11-15T15:35:04;14.10;73.70
23499;DHT22;11926;48.120;11.562;2022-11-15T15:37:52;14.00;74.20
23499;DHT22;11926;48.120;11.562;2022-11-15T15:40:40;13.90;74.60
23499;DHT22;11926;48.120;11.562;2022-11-15T15:43:27;13.90;75.10
23499;DHT22;11926;48.120;11.562;2022-11-15T15:46:18;13.90;75.40
23499;DHT22;11926;48.120;11.562;2022-11-15T15:49:07;13.80;75.70
23499;DHT22;11926;48.120;11.562;2022-11-15T15:51:56;13.70;76.10
23499;DHT22;11926;48.120;11.562;2022-11-15T15:54:43;13.70;76.50
23499;DHT22;11926;48.120;11.562;2022-11-15T15:57:30;13.60;76.90
23499;DHT22;11926;48.120;11.562;2022-11-15T16:00:18;13.50;76.80
23499;DHT22;11926;48.120;11.562;2022-11-15T16:03:08;13.50;77.30
23499;DHT22;11926;48.120;11.562;2022-11-15T16:05:56;13.40;77.60
23499;DHT22;11926;48.120;11.562;2022-11-15T16:08:43;13.30;77.80
23499;DHT22;11926;48.120;11.562;2022-11-15T16:11:51;13.30;78.10
23499;DHT22;11926;48.120;11.562;2022-11-15T16:14:38;13.20;78.30
23499;DHT22;11926;48.120;11.562;2022-11-15T16:17:28;13.10;78.50
23499;DHT22;11926;48.120;11.562;2022-11-15T16:20:29;13.00;78.80
23499;DHT22;11926;48.120;11.562;2022-11-15T16:23:18;12.90;78.90
23499;DHT22;11926;48.120;11.562;2022-11-15T16:26:17;12.80;79.20
23499;DHT22;11926;48.120;11.562;2022-11-15T16:29:04;12.70;79.50
23499;DHT22;11926;48.120;11.562;2022-11-15T16:31:52;12.70;79.80
23499;DHT22;11926;48.120;11.562;2022-11-15T16:34:41;12.60;80.10
23499;DHT22;11926;48.120;11.562;2022-11-15T16:37:38;12.50;80.20
23499;DHT22;11926;48.120;11.562;2022-11-15T16:40:32;12.50;80.60
23499;DHT22;11926;48.120;11.562;2022-11-15T16:43:20;12.30;80.70
23499;DHT22;11926;48.120;11.562;2022-11-15T16:46:13;12.30;80.90
23499;DHT22;11926;48.120;11.562;2022-11-15T16:49:01;12.20;81.10
23499;DHT22;11926;48.120;11.562;2022-11-15T16:51:49;12.10;81.10
23499;DHT22;11926;48.120;11.562;2022-11-15T16:54:37;12.10;81.40
23499;DHT22;11926;48.120;11.562;2022-11-15T16:57:25;12.00;81.60
23499;DHT22;11926;48.120;11.562;2022-11-15T17:00:12;12.00;81.80
23499;DHT22;11926;48.120;11.562;2022-11-15T17:03:01;11.90;82.00
23499;DHT22;11926;48.120;11.562;2022-11-15T17:05:48;11.80;82.10
23499;DHT22;11926;48.120;11.562;2022-11-15T17:08:36;11.80;82.50
23499;DHT22;11926;48.120;11.562;2022-11-15T17:11:24;11.70;82.50
23499;DHT22;11926;48.120;11.562;2022-11-15T17:14:12;11.70;82.60
23499;DHT22;11926;48.120;11.562;2022-11-15T17:16:59;11.60;82.80
23499;DHT22;11926;48.120;11.562;2022-11-15T17:19:46;11.50;83.00
23499;DHT22;11926;48.120;11.562;2022-11-15T17:22:34;11.50;83.20
23499;DHT22;11926;48.120;11.562;2022-11-15T17:25:21;11.40;83.30
23499;DHT22;11926;48.120;11.562;2022-11-15T17:28:10;11.30;83.40
23499;DHT22;11926;48.120;11.562;2022-11-15T17:30:59;11.30;83.70
23499;DHT22;11926;48.120;11.562;2022-11-15T17:33:46;11.20;83.70
23499;DHT22;11926;48.120;11.562;2022-11-15T17:36:34;11.10;83.90
23499;DHT22;11926;48.120;11.562;2022-11-15T17:39:21;11.10;84.10
23499;DHT22;11926;48.120;11.562;2022-11-15T17:42:09;11.00;84.30
23499;DHT22;11926;48.120;11.562;2022-11-15T17:44:58;11.00;84.50
23499;DHT22;11926;48.120;11.562;2022-11-15T17:47:52;10.90;84.60
23499;DHT22;11926;48.120;11.562;2022-11-15T17:50:39;10.90;84.80
23499;DHT22;11926;48.120;11.562;2022-11-15T17:53:26;10.80;85.00
23499;DHT22;11926;48.120;11.562;2022-11-15T17:56:18;10.80;85.30
23499;DHT22;11926;48.120;11.562;2022-11-15T17:59:06;10.70;85.40
23499;DHT22;11926;48.120;11.562;2022-11-15T18:02:02;10.70;85.60
23499;DHT22;11926;48.120;11.562;2022-11-15T18:07:41;10.60;87.80
23499;DHT22;11926;48.120;11.562;2022-11-15T18:10:28;10.50;88.70
23499;DHT22;11926;48.120;11.562;2022-11-15T18:13:15;10.50;88.10
23499;DHT22;11926;48.120;11.562;2022-11-15T18:16:03;10.40;88.10
23499;DHT22;11926;48.120;11.562;2022-11-15T18:18:52;10.40;88.20
23499;DHT22;11926;48.120;11.562;2022-11-15T18:21:41;10.30;88.40
23499;DHT22;11926;48.120;11.562;2022-11-15T18:24:42;10.30;88.50
23499;DHT22;11926;48.120;11.562;2022-11-15T18:27:29;10.30;88.60
23499;DHT22;11926;48.120;11.562;2022-11-15T18:30:16;10.20;88.70
23499;DHT22;11926;48.120;11.562;2022-11-15T18:33:03;10.20;88.90
23499;DHT22;11926;48.120;11.562;2022-11-15T18:36:02;10.20;90.00
23499;DHT22;11926;48.120;11.562;2022-11-15T18:38:53;10.20;89.30
23499;DHT22;11926;48.120;11.562;2022-11-15T18:41:41;10.20;89.50
23499;DHT22;11926;48.120;11.562;2022-11-15T18:44:29;10.10;89.70
23499;DHT22;11926;48.120;11.562;2022-11-15T18:47:16;10.10;89.80
23499;DHT22;11926;48.120;11.562;2022-11-15T18:50:04;10.10;89.90
23499;DHT22;11926;48.120;11.562;2022-11-15T18:52:52;10.10;90.00
23499;DHT22;11926;48.120;11.562;2022-11-15T18:55:39;10.10;90.00
23499;DHT22;11926;48.120;11.562;2022-11-15T18:58:29;10.10;90.10
23499;DHT22;11926;48.120;11.562;2022-11-15T19:01:18;10.10;90.20
23499;DHT22;11926;48.120;11.562;2022-11-15T19:04:07;10.00;90.10
23499;DHT22;11926;48.120;11.562;2022-11-15T19:06:54;10.00;90.20
23499;DHT22;11926;48.120;11.562;2022-11-15T19:09:43;10.00;90.20
23499;DHT22;11926;48.120;11.562;2022-11-15T19:12:31;10.00;90.20
23499;DHT22;11926;48.120;11.562;2022-11-15T19:18:06;10.00;87.10